sensor_id;sensor_type;location;lat;lon;timestamp;P1;durP1;ratioP1;P2;durP2;ratioP2
59571;SDS011;70118;45.638;11.714;2023-05-14T00:01:47;2.85;;;0.60;;
59571;SDS011;70118;45.638;11.714;2023-05-14T00:04:13;3.63;;;0.43;;
59571;SDS011;70118;45.638;11.714;2023-05-14T00:06:38;2.42;;;0.38;;
59571;SDS011;70118;45.638;11.714;2023-05-14T00:09:06;3.27;;;0.50;;
59571;SDS011;70118;45.638;11.714;2023-05-14T00:11:31;2.88;;;0.50;;
59571;SDS011;70118;45.638;11.714;2023-05-14T00:13:57;2.97;;;0.60;;
59571;SDS011;70118;45.638;11.714;2023-05-14T00:16:23;1.92;;;0.20;;
59571;SDS011;70118;45.638;11.714;2023-05-14T00:18:49;3.47;;;0.40;;
59571;SDS011;70118;45.638;11.714;2023-05-14T00:21:14;2.33;;;0.43;;
59571;SDS011;70118;45.638;11.714;2023-05-14T00:23:41;2.17;;;0.40;;
59571;SDS011;70118;45.638;11.714;2023-05-14T00:26:07;2.72;;;0.50;;
59571;SDS011;70118;45.638;11.714;2023-05-14T00:28:33;2.30;;;0.40;;
59571;SDS011;70118;45.638;11.714;2023-05-14T00:30:59;2.38;;;0.30;;
59571;SDS011;70118;45.638;11.714;2023-05-14T00:33:25;3.20;;;0.30;;
59571;SDS011;70118;45.638;11.714;2023-05-14T00:35:51;2.33;;;0.40;;
59571;SDS011;70118;45.638;11.714;2023-05-14T00:38:17;2.93;;;0.50;;
59571;SDS011;70118;45.638;11.714;2023-05-14T00:40:44;2.38;;;0.50;;
59571;SDS011;70118;45.638;11.714;2023-05-14T00:43:18;2.55;;;0.38;;
59571;SDS011;70118;45.638;11.714;2023-05-14T00:45:45;2.55;;;0.50;;
59571;SDS011;70118;45.638;11.714;2023-05-14T00:48:12;3.75;;;0.40;;
59571;SDS011;70118;45.638;11.714;2023-05-14T00:50:38;2.07;;;0.30;;
59571;SDS011;70118;45.638;11.714;2023-05-14T00:53:04;2.20;;;0.30;;
59571;SDS011;70118;45.638;11.714;2023-05-14T00:55:35;1.98;;;0.30;;
59571;SDS011;70118;45.638;11.714;2023-05-14T00:58:09;3.17;;;0.57;;
59571;SDS011;70118;45.638;11.714;2023-05-14T01:00:36;2.28;;;0.40;;
59571;SDS011;70118;45.638;11.714;2023-05-14T01:03:03;2.33;;;0.50;;
59571;SDS011;70118;45.638;11.714;2023-05-14T01:11:24;2.88;;;0.45;;
59571;SDS011;70118;45.638;11.714;2023-05-14T01:14:17;2.53;;;0.30;;
59571;SDS011;70118;45.638;11.714;2023-05-14T01:16:47;1.90;;;0.30;;
59571;SDS011;70118;45.638;11.714;2023-05-14T01:22:09;2.58;;;0.30;;
59571;SDS011;70118;45.638;11.714;2023-05-14T01:24:36;2.65;;;0.40;;
59571;SDS011;70118;45.638;11.714;2023-05-14T01:29:58;1.80;;;0.30;;
59571;SDS011;70118;45.638;11.714;2023-05-14T01:32:29;2.78;;;0.47;;
59571;SDS011;70118;45.638;11.714;2023-05-14T01:34:57;2.10;;;0.30;;
59571;SDS011;70118;45.638;11.714;2023-05-14T01:37:26;2.83;;;0.40;;
59571;SDS011;70118;45.638;11.714;2023-05-14T01:39:54;2.63;;;0.55;;
59571;SDS011;70118;45.638;11.714;2023-05-14T01:42:23;2.40;;;0.50;;
59571;SDS011;70118;45.638;11.714;2023-05-14T01:44:50;2.45;;;0.52;;
59571;SDS011;70118;45.638;11.714;2023-05-14T01:47:16;2.47;;;0.38;;
59571;SDS011;70118;45.638;11.714;2023-05-14T01:49:42;2.40;;;0.40;;
59571;SDS011;70118;45.638;11.714;2023-05-14T01:52:08;2.80;;;0.50;;
59571;SDS011;70118;45.638;11.714;2023-05-14T01:54:34;2.75;;;0.40;;
59571;SDS011;70118;45.638;11.714;2023-05-14T01:57:00;2.33;;;0.40;;
59571;SDS011;70118;45.638;11.714;2023-05-14T01:59:26;2.40;;;0.40;;
59571;SDS011;70118;45.638;11.714;2023-05-14T02:01:54;2.40;;;0.32;;
59571;SDS011;70118;45.638;11.714;2023-05-14T02:04:20;2.53;;;0.40;;
59571;SDS011;70118;45.638;11.714;2023-05-14T02:06:46;2.45;;;0.32;;
59571;SDS011;70118;45.638;11.714;2023-05-14T02:09:12;1.77;;;0.30;;
59571;SDS011;70118;45.638;11.714;2023-05-14T02:11:37;2.60;;;0.40;;
59571;SDS011;70118;45.638;11.714;2023-05-14T02:14:03;1.80;;;0.25;;
59571;SDS011;70118;45.638;11.714;2023-05-14T02:16:29;2.13;;;0.30;;
59571;SDS011;70118;45.638;11.714;2023-05-14T02:18:55;3.10;;;0.30;;
59571;SDS011;70118;45.638;11.714;2023-05-14T02:21:21;2.20;;;0.43;;
59571;SDS011;70118;45.638;11.714;2023-05-14T02:23:47;2.50;;;0.43;;
59571;SDS011;70118;45.638;11.714;2023-05-14T02:26:14;2.87;;;0.50;;
59571;SDS011;70118;45.638;11.714;2023-05-14T02:28:40;1.98;;;0.30;;
59571;SDS011;70118;45.638;11.714;2023-05-14T02:31:06;2.25;;;0.30;;
59571;SDS011;70118;45.638;11.714;2023-05-14T02:33:32;2.67;;;0.40;;
59571;SDS011;70118;45.638;11.714;2023-05-14T02:35:58;1.90;;;0.30;;
59571;SDS011;70118;45.638;11.714;2023-05-14T02:38:24;2.97;;;0.63;;
59571;SDS011;70118;45.638;11.714;2023-05-14T02:40:50;1.80;;;0.20;;
59571;SDS011;70118;45.638;11.714;2023-05-14T02:43:16;2.50;;;0.40;;
59571;SDS011;70118;45.638;11.714;2023-05-14T02:45:42;3.23;;;0.27;;
59571;SDS011;70118;45.638;11.714;2023-05-14T02:48:08;2.75;;;0.50;;
59571;SDS011;70118;45.638;11.714;2023-05-14T02:50:35;1.70;;;0.20;;
59571;SDS011;70118;45.638;11.714;2023-05-14T02:53:00;2.13;;;0.50;;
59571;SDS011;70118;45.638;11.714;2023-05-14T02:55:26;2.20;;;0.20;;
59571;SDS011;70118;45.638;11.714;2023-05-14T02:57:52;2.00;;;0.20;;
59571;SDS011;70118;45.638;11.714;2023-05-14T03:00:18;3.22;;;0.40;;
59571;SDS011;70118;45.638;11.714;2023-05-14T03:02:44;1.70;;;0.30;;
59571;SDS011;70118;45.638;11.714;2023-05-14T03:05:10;2.10;;;0.30;;
59571;SDS011;70118;45.638;11.714;2023-05-14T03:07:36;2.17;;;0.38;;
59571;SDS011;70118;45.638;11.714;2023-05-14T03:10:02;1.52;;;0.30;;
59571;SDS011;70118;45.638;11.714;2023-05-14T03:12:29;2.08;;;0.28;;
59571;SDS011;70118;45.638;11.714;2023-05-14T03:14:54;2.17;;;0.33;;
59571;SDS011;70118;45.638;11.714;2023-05-14T03:17:20;2.47;;;0.40;;
59571;SDS011;70118;45.638;11.714;2023-05-14T03:19:46;2.17;;;0.35;;
59571;SDS011;70118;45.638;11.714;2023-05-14T03:22:12;1.80;;;0.20;;
59571;SDS011;70118;45.638;11.714;2023-05-14T03:24:38;1.98;;;0.28;;
59571;SDS011;70118;45.638;11.714;2023-05-14T03:27:05;2.03;;;0.40;;
59571;SDS011;70118;45.638;11.714;2023-05-14T03:29:30;2.55;;;0.38;;
59571;SDS011;70118;45.638;11.714;2023-05-14T03:31:56;2.53;;;0.30;;
59571;SDS011;70118;45.638;11.714;2023-05-14T03:34:22;2.78;;;0.40;;
59571;SDS011;70118;45.638;11.714;2023-05-14T03:36:49;1.73;;;0.20;;
59571;SDS011;70118;45.638;11.714;2023-05-14T03:39:15;2.07;;;0.30;;
59571;SDS011;70118;45.638;11.714;2023-05-14T03:41:46;2.97;;;0.30;;
59571;SDS011;70118;45.638;11.714;2023-05-14T03:44:12;1.58;;;0.17;;
59571;SDS011;70118;45.638;11.714;2023-05-14T03:46:39;2.45;;;0.30;;
59571;SDS011;70118;45.638;11.714;2023-05-14T03:49:05;2.13;;;0.40;;
59571;SDS011;70118;45.638;11.714;2023-05-14T03:51:32;5.30;;;0.43;;
59571;SDS011;70118;45.638;11.714;2023-05-14T03:53:58;1.73;;;0.20;;
59571;SDS011;70118;45.638;11.714;2023-05-14T03:56:24;2.72;;;0.20;;
59571;SDS011;70118;45.638;11.714;2023-05-14T03:58:51;2.30;;;0.30;;
59571;SDS011;70118;45.638;11.714;2023-05-14T04:01:16;1.40;;;0.20;;
59571;SDS011;70118;45.638;11.714;2023-05-14T04:03:43;1.65;;;0.20;;
59571;SDS011;70118;45.638;11.714;2023-05-14T04:06:08;2.17;;;0.38;;
59571;SDS011;70118;45.638;11.714;2023-05-14T04:08:34;2.17;;;0.20;;
59571;SDS011;70118;45.638;11.714;2023-05-14T04:11:00;1.60;;;0.20;;
59571;SDS011;70118;45.638;11.714;2023-05-14T04:13:26;1.38;;;0.20;;
59571;SDS011;70118;45.638;11.714;2023-05-14T04:15:52;1.85;;;0.30;;
59571;SDS011;70118;45.638;11.714;2023-05-14T04:18:18;2.27;;;0.40;;
59571;SDS011;70118;45.638;11.714;2023-05-14T04:20:44;2.22;;;0.30;;
59571;SDS011;70118;45.638;11.714;2023-05-14T04:23:10;1.50;;;0.30;;
59571;SDS011;70118;45.638;11.714;2023-05-14T04:25:36;2.27;;;0.20;;
59571;SDS011;70118;45.638;11.714;2023-05-14T04:28:02;2.00;;;0.30;;
59571;SDS011;70118;45.638;11.714;2023-05-14T04:30:27;2.17;;;0.30;;
59571;SDS011;70118;45.638;11.714;2023-05-14T04:32:53;2.97;;;0.20;;
59571;SDS011;70118;45.638;11.714;2023-05-14T04:35:20;1.60;;;0.20;;
59571;SDS011;70118;45.638;11.714;2023-05-14T04:37:46;2.00;;;0.20;;
59571;SDS011;70118;45.638;11.714;2023-05-14T04:40:13;2.08;;;0.30;;
59571;SDS011;70118;45.638;11.714;2023-05-14T04:42:41;1.85;;;0.30;;
59571;SDS011;70118;45.638;11.714;2023-05-14T04:45:08;1.77;;;0.20;;
59571;SDS011;70118;45.638;11.714;2023-05-14T04:47:34;1.80;;;0.20;;
59571;SDS011;70118;45.638;11.714;2023-05-14T04:50:01;1.52;;;0.28;;
59571;SDS011;70118;45.638;11.714;2023-05-14T04:52:27;2.42;;;0.30;;
59571;SDS011;70118;45.638;11.714;2023-05-14T04:54:53;2.28;;;0.35;;
59571;SDS011;70118;45.638;11.714;2023-05-14T04:57:19;2.10;;;0.30;;
59571;SDS011;70118;45.638;11.714;2023-05-14T04:59:45;2.63;;;0.47;;
59571;SDS011;70118;45.638;11.714;2023-05-14T05:02:11;1.45;;;0.20;;
59571;SDS011;70118;45.638;11.714;2023-05-14T05:04:37;2.05;;;0.30;;
59571;SDS011;70118;45.638;11.714;2023-05-14T05:07:03;1.73;;;0.20;;
59571;SDS011;70118;45.638;11.714;2023-05-14T05:09:30;1.85;;;0.28;;
59571;SDS011;70118;45.638;11.714;2023-05-14T05:11:56;1.75;;;0.22;;
59571;SDS011;70118;45.638;11.714;2023-05-14T05:14:22;1.30;;;0.20;;
59571;SDS011;70118;45.638;11.714;2023-05-14T05:16:48;2.00;;;0.40;;
59571;SDS011;70118;45.638;11.714;2023-05-14T05:19:15;1.73;;;0.22;;
59571;SDS011;70118;45.638;11.714;2023-05-14T05:21:40;1.25;;;0.20;;
59571;SDS011;70118;45.638;11.714;2023-05-14T05:24:07;2.08;;;0.28;;
59571;SDS011;70118;45.638;11.714;2023-05-14T05:26:33;1.87;;;0.20;;
59571;SDS011;70118;45.638;11.714;2023-05-14T05:29:02;1.90;;;0.30;;
59571;SDS011;70118;45.638;11.714;2023-05-14T05:31:28;2.10;;;0.22;;
59571;SDS011;70118;45.638;11.714;2023-05-14T05:33:55;1.90;;;0.30;;
59571;SDS011;70118;45.638;11.714;2023-05-14T05:36:21;2.28;;;0.30;;
59571;SDS011;70118;45.638;11.714;2023-05-14T05:38:47;1.70;;;0.30;;
59571;SDS011;70118;45.638;11.714;2023-05-14T05:41:13;2.33;;;0.40;;
59571;SDS011;70118;45.638;11.714;2023-05-14T05:43:39;1.58;;;0.30;;
59571;SDS011;70118;45.638;11.714;2023-05-14T05:46:05;1.93;;;0.20;;
59571;SDS011;70118;45.638;11.714;2023-05-14T05:48:31;2.17;;;0.25;;
59571;SDS011;70118;45.638;11.714;2023-05-14T05:51:05;2.10;;;0.10;;
59571;SDS011;70118;45.638;11.714;2023-05-14T05:53:35;1.33;;;0.10;;
59571;SDS011;70118;45.638;11.714;2023-05-14T05:56:02;1.83;;;0.20;;
59571;SDS011;70118;45.638;11.714;2023-05-14T05:58:28;1.90;;;0.10;;
59571;SDS011;70118;45.638;11.714;2023-05-14T06:00:53;2.60;;;0.20;;
59571;SDS011;70118;45.638;11.714;2023-05-14T06:03:21;2.50;;;0.30;;
59571;SDS011;70118;45.638;11.714;2023-05-14T06:05:47;1.80;;;0.30;;
59571;SDS011;70118;45.638;11.714;2023-05-14T06:08:13;2.88;;;0.22;;
59571;SDS011;70118;45.638;11.714;2023-05-14T06:10:39;2.57;;;0.30;;
59571;SDS011;70118;45.638;11.714;2023-05-14T06:13:04;2.25;;;0.40;;
59571;SDS011;70118;45.638;11.714;2023-05-14T06:15:30;1.90;;;0.30;;
59571;SDS011;70118;45.638;11.714;2023-05-14T06:17:56;2.17;;;0.37;;
59571;SDS011;70118;45.638;11.714;2023-05-14T06:20:22;2.40;;;0.32;;
59571;SDS011;70118;45.638;11.714;2023-05-14T06:22:48;3.03;;;0.30;;
59571;SDS011;70118;45.638;11.714;2023-05-14T06:25:14;2.00;;;0.40;;
59571;SDS011;70118;45.638;11.714;2023-05-14T06:27:39;1.50;;;0.30;;
59571;SDS011;70118;45.638;11.714;2023-05-14T06:30:05;2.00;;;0.30;;
59571;SDS011;70118;45.638;11.714;2023-05-14T06:32:32;2.35;;;0.30;;
59571;SDS011;70118;45.638;11.714;2023-05-14T06:34:57;1.98;;;0.40;;
59571;SDS011;70118;45.638;11.714;2023-05-14T06:37:23;2.27;;;0.20;;
59571;SDS011;70118;45.638;11.714;2023-05-14T06:39:49;1.70;;;0.20;;
59571;SDS011;70118;45.638;11.714;2023-05-14T06:42:15;2.30;;;0.30;;
59571;SDS011;70118;45.638;11.714;2023-05-14T06:44:41;3.58;;;0.30;;
59571;SDS011;70118;45.638;11.714;2023-05-14T06:47:07;2.20;;;0.30;;
59571;SDS011;70118;45.638;11.714;2023-05-14T06:49:33;3.20;;;0.33;;
59571;SDS011;70118;45.638;11.714;2023-05-14T06:51:59;1.90;;;0.20;;
59571;SDS011;70118;45.638;11.714;2023-05-14T06:54:25;1.70;;;0.30;;
59571;SDS011;70118;45.638;11.714;2023-05-14T06:56:52;2.80;;;0.30;;
59571;SDS011;70118;45.638;11.714;2023-05-14T06:59:18;3.72;;;0.30;;
59571;SDS011;70118;45.638;11.714;2023-05-14T07:01:43;1.57;;;0.20;;
59571;SDS011;70118;45.638;11.714;2023-05-14T07:04:09;3.05;;;0.30;;
59571;SDS011;70118;45.638;11.714;2023-05-14T07:06:35;3.10;;;0.20;;
59571;SDS011;70118;45.638;11.714;2023-05-14T07:09:00;1.77;;;0.20;;
59571;SDS011;70118;45.638;11.714;2023-05-14T07:11:27;1.80;;;0.20;;
59571;SDS011;70118;45.638;11.714;2023-05-14T07:13:52;3.22;;;0.55;;
59571;SDS011;70118;45.638;11.714;2023-05-14T07:16:18;4.32;;;0.30;;
59571;SDS011;70118;45.638;11.714;2023-05-14T07:18:44;3.45;;;0.47;;
59571;SDS011;70118;45.638;11.714;2023-05-14T07:21:10;3.03;;;0.20;;
59571;SDS011;70118;45.638;11.714;2023-05-14T07:23:36;1.80;;;0.20;;
59571;SDS011;70118;45.638;11.714;2023-05-14T07:26:05;2.22;;;0.50;;
59571;SDS011;70118;45.638;11.714;2023-05-14T07:28:31;2.70;;;0.30;;
59571;SDS011;70118;45.638;11.714;2023-05-14T07:30:58;4.65;;;0.30;;
59571;SDS011;70118;45.638;11.714;2023-05-14T07:33:24;2.38;;;0.32;;
59571;SDS011;70118;45.638;11.714;2023-05-14T07:35:50;3.38;;;0.30;;
59571;SDS011;70118;45.638;11.714;2023-05-14T07:38:16;2.10;;;0.40;;
59571;SDS011;70118;45.638;11.714;2023-05-14T07:40:43;2.50;;;0.30;;
59571;SDS011;70118;45.638;11.714;2023-05-14T07:43:09;2.55;;;0.30;;
59571;SDS011;70118;45.638;11.714;2023-05-14T07:45:37;1.90;;;0.20;;
59571;SDS011;70118;45.638;11.714;2023-05-14T07:48:03;2.25;;;0.30;;
59571;SDS011;70118;45.638;11.714;2023-05-14T07:50:29;2.80;;;0.50;;
59571;SDS011;70118;45.638;11.714;2023-05-14T07:52:55;2.20;;;0.47;;
59571;SDS011;70118;45.638;11.714;2023-05-14T07:55:21;2.45;;;0.50;;
59571;SDS011;70118;45.638;11.714;2023-05-14T07:57:47;2.50;;;0.50;;
59571;SDS011;70118;45.638;11.714;2023-05-14T08:00:13;4.15;;;0.90;;
59571;SDS011;70118;45.638;11.714;2023-05-14T08:02:41;4.05;;;0.50;;
59571;SDS011;70118;45.638;11.714;2023-05-14T08:05:07;3.72;;;0.70;;
59571;SDS011;70118;45.638;11.714;2023-05-14T08:07:34;4.37;;;0.60;;
59571;SDS011;70118;45.638;11.714;2023-05-14T08:10:00;3.05;;;0.60;;
59571;SDS011;70118;45.638;11.714;2023-05-14T08:12:26;5.97;;;0.80;;
59571;SDS011;70118;45.638;11.714;2023-05-14T08:14:54;3.30;;;0.60;;
59571;SDS011;70118;45.638;11.714;2023-05-14T08:17:20;6.25;;;1.00;;
59571;SDS011;70118;45.638;11.714;2023-05-14T08:19:46;3.33;;;0.97;;
59571;SDS011;70118;45.638;11.714;2023-05-14T08:22:11;3.70;;;1.00;;
59571;SDS011;70118;45.638;11.714;2023-05-14T08:24:37;4.60;;;1.30;;
59571;SDS011;70118;45.638;11.714;2023-05-14T08:27:03;3.80;;;1.10;;
59571;SDS011;70118;45.638;11.714;2023-05-14T08:29:29;4.55;;;1.23;;
59571;SDS011;70118;45.638;11.714;2023-05-14T08:31:55;3.90;;;1.10;;
59571;SDS011;70118;45.638;11.714;2023-05-14T08:34:21;5.55;;;1.02;;
59571;SDS011;70118;45.638;11.714;2023-05-14T08:36:47;9.20;;;1.67;;
59571;SDS011;70118;45.638;11.714;2023-05-14T08:39:13;3.77;;;0.77;;
59571;SDS011;70118;45.638;11.714;2023-05-14T08:41:39;4.60;;;1.00;;
59571;SDS011;70118;45.638;11.714;2023-05-14T08:44:06;4.65;;;1.40;;
59571;SDS011;70118;45.638;11.714;2023-05-14T08:46:33;4.13;;;1.40;;
59571;SDS011;70118;45.638;11.714;2023-05-14T08:51:37;4.18;;;1.30;;
59571;SDS011;70118;45.638;11.714;2023-05-14T08:54:03;5.70;;;1.30;;
59571;SDS011;70118;45.638;11.714;2023-05-14T08:56:31;5.55;;;1.00;;
59571;SDS011;70118;45.638;11.714;2023-05-14T08:58:57;7.10;;;1.13;;
59571;SDS011;70118;45.638;11.714;2023-05-14T09:01:24;5.97;;;0.93;;
59571;SDS011;70118;45.638;11.714;2023-05-14T09:03:50;5.82;;;1.30;;
59571;SDS011;70118;45.638;11.714;2023-05-14T09:06:17;13.38;;;1.58;;
59571;SDS011;70118;45.638;11.714;2023-05-14T09:08:45;6.38;;;1.17;;
59571;SDS011;70118;45.638;11.714;2023-05-14T09:11:11;4.07;;;1.23;;
59571;SDS011;70118;45.638;11.714;2023-05-14T09:13:37;5.00;;;1.17;;
59571;SDS011;70118;45.638;11.714;2023-05-14T09:16:03;5.55;;;0.93;;
59571;SDS011;70118;45.638;11.714;2023-05-14T09:18:29;5.60;;;1.10;;
59571;SDS011;70118;45.638;11.714;2023-05-14T09:20:56;7.97;;;1.37;;
59571;SDS011;70118;45.638;11.714;2023-05-14T09:23:24;7.07;;;1.17;;
59571;SDS011;70118;45.638;11.714;2023-05-14T09:25:50;5.45;;;1.30;;
59571;SDS011;70118;45.638;11.714;2023-05-14T09:28:17;4.40;;;1.20;;
59571;SDS011;70118;45.638;11.714;2023-05-14T09:30:49;4.13;;;1.10;;
59571;SDS011;70118;45.638;11.714;2023-05-14T09:33:24;5.70;;;1.37;;
59571;SDS011;70118;45.638;11.714;2023-05-14T09:35:58;7.03;;;1.58;;
59571;SDS011;70118;45.638;11.714;2023-05-14T09:38:31;5.82;;;1.40;;
59571;SDS011;70118;45.638;11.714;2023-05-14T09:40:58;6.35;;;1.65;;
59571;SDS011;70118;45.638;11.714;2023-05-14T09:43:25;8.93;;;1.95;;
59571;SDS011;70118;45.638;11.714;2023-05-14T09:45:51;10.30;;;2.97;;
59571;SDS011;70118;45.638;11.714;2023-05-14T09:48:17;11.05;;;3.33;;
59571;SDS011;70118;45.638;11.714;2023-05-14T09:50:44;16.65;;;5.28;;
59571;SDS011;70118;45.638;11.714;2023-05-14T09:53:11;18.38;;;6.32;;
59571;SDS011;70118;45.638;11.714;2023-05-14T09:55:38;19.70;;;7.45;;
59571;SDS011;70118;45.638;11.714;2023-05-14T09:58:04;23.67;;;9.40;;
59571;SDS011;70118;45.638;11.714;2023-05-14T10:00:31;22.35;;;8.40;;
59571;SDS011;70118;45.638;11.714;2023-05-14T10:02:57;22.40;;;8.95;;
59571;SDS011;70118;45.638;11.714;2023-05-14T10:05:23;23.58;;;9.45;;
59571;SDS011;70118;45.638;11.714;2023-05-14T10:07:52;23.63;;;10.38;;
59571;SDS011;70118;45.638;11.714;2023-05-14T10:10:22;30.43;;;10.60;;
59571;SDS011;70118;45.638;11.714;2023-05-14T10:12:56;23.23;;;10.82;;
59571;SDS011;70118;45.638;11.714;2023-05-14T10:15:39;29.80;;;11.27;;
59571;SDS011;70118;45.638;11.714;2023-05-14T10:18:18;26.00;;;10.60;;
59571;SDS011;70118;45.638;11.714;2023-05-14T10:20:47;28.20;;;10.82;;
59571;SDS011;70118;45.638;11.714;2023-05-14T10:23:17;27.43;;;11.20;;
59571;SDS011;70118;45.638;11.714;2023-05-14T10:25:43;29.15;;;12.35;;
59571;SDS011;70118;45.638;11.714;2023-05-14T10:28:09;26.20;;;11.77;;
59571;SDS011;70118;45.638;11.714;2023-05-14T10:30:40;29.88;;;11.77;;
59571;SDS011;70118;45.638;11.714;2023-05-14T10:33:14;23.48;;;11.63;;
59571;SDS011;70118;45.638;11.714;2023-05-14T10:36:02;24.40;;;11.67;;
59571;SDS011;70118;45.638;11.714;2023-05-14T10:38:32;29.70;;;12.50;;
59571;SDS011;70118;45.638;11.714;2023-05-14T10:41:00;26.48;;;12.50;;
59571;SDS011;70118;45.638;11.714;2023-05-14T10:43:31;25.58;;;11.43;;
59571;SDS011;70118;45.638;11.714;2023-05-14T10:46:04;31.13;;;12.77;;
59571;SDS011;70118;45.638;11.714;2023-05-14T10:48:31;25.73;;;12.13;;
59571;SDS011;70118;45.638;11.714;2023-05-14T10:50:58;25.90;;;11.10;;
59571;SDS011;70118;45.638;11.714;2023-05-14T10:53:35;27.40;;;11.75;;
59571;SDS011;70118;45.638;11.714;2023-05-14T10:56:05;27.35;;;12.00;;
59571;SDS011;70118;45.638;11.714;2023-05-14T10:58:36;26.77;;;11.73;;
59571;SDS011;70118;45.638;11.714;2023-05-14T11:01:07;26.20;;;12.07;;
59571;SDS011;70118;45.638;11.714;2023-05-14T11:03:53;25.75;;;10.70;;
59571;SDS011;70118;45.638;11.714;2023-05-14T11:06:22;28.27;;;12.75;;
59571;SDS011;70118;45.638;11.714;2023-05-14T11:08:50;24.63;;;11.05;;
59571;SDS011;70118;45.638;11.714;2023-05-14T11:11:17;27.27;;;11.63;;
59571;SDS011;70118;45.638;11.714;2023-05-14T11:13:43;24.90;;;11.30;;
59571;SDS011;70118;45.638;11.714;2023-05-14T11:16:10;26.98;;;11.80;;
59571;SDS011;70118;45.638;11.714;2023-05-14T11:18:36;23.58;;;11.23;;
59571;SDS011;70118;45.638;11.714;2023-05-14T11:21:02;26.05;;;12.45;;
59571;SDS011;70118;45.638;11.714;2023-05-14T11:23:28;25.43;;;11.07;;
59571;SDS011;70118;45.638;11.714;2023-05-14T11:25:54;25.80;;;11.90;;
59571;SDS011;70118;45.638;11.714;2023-05-14T11:28:24;24.80;;;11.07;;
59571;SDS011;70118;45.638;11.714;2023-05-14T11:30:51;27.10;;;11.25;;
59571;SDS011;70118;45.638;11.714;2023-05-14T11:33:18;25.23;;;11.23;;
59571;SDS011;70118;45.638;11.714;2023-05-14T11:35:47;25.23;;;10.82;;
59571;SDS011;70118;45.638;11.714;2023-05-14T11:38:16;22.23;;;10.55;;
59571;SDS011;70118;45.638;11.714;2023-05-14T11:40:51;23.55;;;10.43;;
59571;SDS011;70118;45.638;11.714;2023-05-14T11:43:19;23.35;;;10.48;;
59571;SDS011;70118;45.638;11.714;2023-05-14T11:45:51;27.47;;;11.13;;
59571;SDS011;70118;45.638;11.714;2023-05-14T11:48:18;22.50;;;9.85;;
59571;SDS011;70118;45.638;11.714;2023-05-14T11:50:46;20.98;;;9.82;;
59571;SDS011;70118;45.638;11.714;2023-05-14T11:53:26;22.52;;;10.27;;
59571;SDS011;70118;45.638;11.714;2023-05-14T11:55:53;21.83;;;9.75;;
59571;SDS011;70118;45.638;11.714;2023-05-14T11:58:21;20.20;;;9.70;;
59571;SDS011;70118;45.638;11.714;2023-05-14T12:00:48;19.33;;;9.43;;
59571;SDS011;70118;45.638;11.714;2023-05-14T12:03:17;21.27;;;10.40;;
59571;SDS011;70118;45.638;11.714;2023-05-14T12:05:59;22.80;;;10.38;;
59571;SDS011;70118;45.638;11.714;2023-05-14T12:08:29;21.75;;;9.85;;
59571;SDS011;70118;45.638;11.714;2023-05-14T12:10:59;21.33;;;9.60;;
59571;SDS011;70118;45.638;11.714;2023-05-14T12:13:26;22.48;;;9.98;;
59571;SDS011;70118;45.638;11.714;2023-05-14T12:15:56;19.35;;;9.20;;
59571;SDS011;70118;45.638;11.714;2023-05-14T12:18:24;20.80;;;9.85;;
59571;SDS011;70118;45.638;11.714;2023-05-14T12:20:51;22.17;;;9.70;;
59571;SDS011;70118;45.638;11.714;2023-05-14T12:23:26;19.63;;;9.60;;
59571;SDS011;70118;45.638;11.714;2023-05-14T12:25:54;23.25;;;9.98;;
59571;SDS011;70118;45.638;11.714;2023-05-14T12:28:25;21.35;;;9.52;;
59571;SDS011;70118;45.638;11.714;2023-05-14T12:30:56;21.55;;;9.55;;
59571;SDS011;70118;45.638;11.714;2023-05-14T12:33:22;18.20;;;9.45;;
59571;SDS011;70118;45.638;11.714;2023-05-14T12:35:50;19.97;;;9.27;;
59571;SDS011;70118;45.638;11.714;2023-05-14T12:38:25;18.35;;;9.15;;
59571;SDS011;70118;45.638;11.714;2023-05-14T12:40:51;21.50;;;9.30;;
59571;SDS011;70118;45.638;11.714;2023-05-14T12:43:17;16.77;;;8.45;;
59571;SDS011;70118;45.638;11.714;2023-05-14T12:45:44;18.17;;;8.97;;
59571;SDS011;70118;45.638;11.714;2023-05-14T12:48:10;17.70;;;8.38;;
59571;SDS011;70118;45.638;11.714;2023-05-14T12:50:37;17.55;;;8.75;;
59571;SDS011;70118;45.638;11.714;2023-05-14T12:53:03;19.45;;;9.07;;
59571;SDS011;70118;45.638;11.714;2023-05-14T12:55:29;18.60;;;9.07;;
59571;SDS011;70118;45.638;11.714;2023-05-14T12:57:55;18.90;;;8.77;;
59571;SDS011;70118;45.638;11.714;2023-05-14T13:00:22;20.90;;;8.68;;
59571;SDS011;70118;45.638;11.714;2023-05-14T13:02:47;18.58;;;9.18;;
59571;SDS011;70118;45.638;11.714;2023-05-14T13:05:13;19.42;;;8.57;;
59571;SDS011;70118;45.638;11.714;2023-05-14T13:07:40;19.40;;;8.10;;
59571;SDS011;70118;45.638;11.714;2023-05-14T13:10:06;17.83;;;8.35;;
59571;SDS011;70118;45.638;11.714;2023-05-14T13:12:32;17.23;;;7.63;;
59571;SDS011;70118;45.638;11.714;2023-05-14T13:14:58;17.13;;;8.00;;
59571;SDS011;70118;45.638;11.714;2023-05-14T13:17:24;15.67;;;7.83;;
59571;SDS011;70118;45.638;11.714;2023-05-14T13:19:50;15.65;;;7.85;;
59571;SDS011;70118;45.638;11.714;2023-05-14T13:22:16;19.05;;;8.00;;
59571;SDS011;70118;45.638;11.714;2023-05-14T13:24:43;15.90;;;7.73;;
59571;SDS011;70118;45.638;11.714;2023-05-14T13:27:08;15.70;;;7.53;;
59571;SDS011;70118;45.638;11.714;2023-05-14T13:29:34;18.20;;;8.05;;
59571;SDS011;70118;45.638;11.714;2023-05-14T13:32:00;15.17;;;7.90;;
59571;SDS011;70118;45.638;11.714;2023-05-14T13:34:26;15.52;;;7.63;;
59571;SDS011;70118;45.638;11.714;2023-05-14T13:36:52;14.32;;;7.30;;
59571;SDS011;70118;45.638;11.714;2023-05-14T13:39:18;14.57;;;7.20;;
59571;SDS011;70118;45.638;11.714;2023-05-14T13:41:47;14.77;;;7.27;;
59571;SDS011;70118;45.638;11.714;2023-05-14T13:44:14;18.35;;;7.38;;
59571;SDS011;70118;45.638;11.714;2023-05-14T13:46:41;14.52;;;6.97;;
59571;SDS011;70118;45.638;11.714;2023-05-14T13:49:07;17.38;;;7.80;;
59571;SDS011;70118;45.638;11.714;2023-05-14T13:51:33;15.95;;;7.75;;
59571;SDS011;70118;45.638;11.714;2023-05-14T13:53:59;18.37;;;8.00;;
59571;SDS011;70118;45.638;11.714;2023-05-14T13:56:25;14.10;;;7.97;;
59571;SDS011;70118;45.638;11.714;2023-05-14T13:58:51;14.40;;;7.03;;
59571;SDS011;70118;45.638;11.714;2023-05-14T14:01:17;14.63;;;6.85;;
59571;SDS011;70118;45.638;11.714;2023-05-14T14:03:43;16.07;;;7.23;;
59571;SDS011;70118;45.638;11.714;2023-05-14T14:06:10;13.80;;;6.75;;
59571;SDS011;70118;45.638;11.714;2023-05-14T14:08:36;14.98;;;7.43;;
59571;SDS011;70118;45.638;11.714;2023-05-14T14:11:02;16.63;;;7.57;;
59571;SDS011;70118;45.638;11.714;2023-05-14T14:13:28;14.18;;;6.57;;
59571;SDS011;70118;45.638;11.714;2023-05-14T14:15:54;13.73;;;6.97;;
59571;SDS011;70118;45.638;11.714;2023-05-14T14:18:20;12.40;;;6.30;;
59571;SDS011;70118;45.638;11.714;2023-05-14T14:20:46;13.73;;;6.93;;
59571;SDS011;70118;45.638;11.714;2023-05-14T14:23:12;14.50;;;6.85;;
59571;SDS011;70118;45.638;11.714;2023-05-14T14:25:38;16.10;;;7.63;;
59571;SDS011;70118;45.638;11.714;2023-05-14T14:28:04;14.55;;;7.32;;
59571;SDS011;70118;45.638;11.714;2023-05-14T14:30:30;14.57;;;6.97;;
59571;SDS011;70118;45.638;11.714;2023-05-14T14:32:56;15.13;;;7.38;;
59571;SDS011;70118;45.638;11.714;2023-05-14T14:35:25;15.83;;;6.87;;
59571;SDS011;70118;45.638;11.714;2023-05-14T14:37:50;14.25;;;6.70;;
59571;SDS011;70118;45.638;11.714;2023-05-14T14:40:18;14.55;;;5.82;;
59571;SDS011;70118;45.638;11.714;2023-05-14T14:42:44;12.82;;;6.65;;